Main page
METAR-TAF:

METAR-TAF

Airports :

Humberside, England

Humberside Airport

latitude: 53-35N, longitude: 000-21W, elevation: 31 m

Current weather observation

The report was made 24 minutes ago, at 02:20 UTC
Wind 18 kt from the South
Temperature 16°C
Humidity 77%
Pressure 1011 hPa
Visibility: 7000 m

METAR: EGNJ 220220Z AUTO 17018KT 7000 NCD 16/12 Q1011

Time: 03:44 (02:44 UTC)

Forecast

The report was made 48 minutes ago, at 01:56 UTC
Forecast valid from 22 at 03 UTC to 22 at 12 UTC
Wind 12 kt from the South
Visibility 10 km or more
Few clouds at a height of 3000 ft
Probability 30% :
Temporary
from 22 at 03 UTC to 22 at 05 UTC
Visibility: 4000 m
thunderstorm, rain
Becoming
from 22 at 09 UTC to 22 at 12 UTC
Wind 10 kt from the West/Southwest

TAF: EGNJ 220156Z 2203/2212 17012KT 9999 FEW030 PROB30 TEMPO 2203/2205 4000 TSRA BECMG 2209/2212 24010KT

Weather observations and forecasts of more than 4000 airports (METAR and TAF reports).

The available stations are represented by yellow and red dots on the map.

Hover mouse over dot to see the name of the station.

Then click to see weather observations and forecasts.

To change the map : click on the green buttons with a black cross to zoom in, on the green button with a dash to zoom out, or on the green arrows for adjacent maps.


METAR-TAF: